sensor_id;sensor_type;location;lat;lon;timestamp;temperature;humidity
32839;DHT22;19182;41.820;12.808;2023-10-31T00:00:52;20.30;99.90
32839;DHT22;19182;41.820;12.808;2023-10-31T00:03:18;20.30;99.90
32839;DHT22;19182;41.820;12.808;2023-10-31T00:05:47;20.30;99.90
32839;DHT22;19182;41.820;12.808;2023-10-31T00:08:14;20.20;99.90
32839;DHT22;19182;41.820;12.808;2023-10-31T00:10:39;20.20;99.90
32839;DHT22;19182;41.820;12.808;2023-10-31T00:13:10;20.20;99.90
32839;DHT22;19182;41.820;12.808;2023-10-31T00:15:37;20.30;99.90
32839;DHT22;19182;41.820;12.808;2023-10-31T00:18:03;20.30;99.90
32839;DHT22;19182;41.820;12.808;2023-10-31T00:20:29;20.30;99.90
32839;DHT22;19182;41.820;12.808;2023-10-31T00:22:55;20.20;99.90
32839;DHT22;19182;41.820;12.808;2023-10-31T00:25:21;20.30;99.90
32839;DHT22;19182;41.820;12.808;2023-10-31T00:27:49;20.30;99.90
32839;DHT22;19182;41.820;12.808;2023-10-31T00:30:15;20.30;99.90
32839;DHT22;19182;41.820;12.808;2023-10-31T00:32:41;20.40;99.90
32839;DHT22;19182;41.820;12.808;2023-10-31T00:35:08;20.30;99.90
32839;DHT22;19182;41.820;12.808;2023-10-31T00:37:34;20.30;99.90
32839;DHT22;19182;41.820;12.808;2023-10-31T00:40:00;20.20;99.90
32839;DHT22;19182;41.820;12.808;2023-10-31T00:42:25;20.30;99.90
32839;DHT22;19182;41.820;12.808;2023-10-31T00:44:54;20.30;99.90
32839;DHT22;19182;41.820;12.808;2023-10-31T00:47:21;20.30;99.90
32839;DHT22;19182;41.820;12.808;2023-10-31T00:49:47;19.10;99.90
32839;DHT22;19182;41.820;12.808;2023-10-31T00:52:13;20.40;99.90
32839;DHT22;19182;41.820;12.808;2023-10-31T00:54:39;20.30;99.90
32839;DHT22;19182;41.820;12.808;2023-10-31T00:57:05;20.30;99.90
32839;DHT22;19182;41.820;12.808;2023-10-31T00:59:31;20.20;99.90
32839;DHT22;19182;41.820;12.808;2023-10-31T01:01:57;20.30;99.90
32839;DHT22;19182;41.820;12.808;2023-10-31T01:04:23;20.20;99.90
32839;DHT22;19182;41.820;12.808;2023-10-31T01:06:51;20.30;99.90
32839;DHT22;19182;41.820;12.808;2023-10-31T01:09:19;20.30;99.90
32839;DHT22;19182;41.820;12.808;2023-10-31T01:11:44;20.30;99.90
32839;DHT22;19182;41.820;12.808;2023-10-31T01:14:11;20.30;99.90
32839;DHT22;19182;41.820;12.808;2023-10-31T01:16:39;20.20;99.90
32839;DHT22;19182;41.820;12.808;2023-10-31T01:19:05;20.10;99.90
32839;DHT22;19182;41.820;12.808;2023-10-31T01:21:31;20.10;99.90
32839;DHT22;19182;41.820;12.808;2023-10-31T01:23:58;20.10;99.90
32839;DHT22;19182;41.820;12.808;2023-10-31T01:26:25;20.10;99.90
32839;DHT22;19182;41.820;12.808;2023-10-31T01:28:51;20.10;99.90
32839;DHT22;19182;41.820;12.808;2023-10-31T01:31:17;20.10;99.90
32839;DHT22;19182;41.820;12.808;2023-10-31T01:33:43;20.00;99.90
32839;DHT22;19182;41.820;12.808;2023-10-31T01:36:10;20.20;99.90
32839;DHT22;19182;41.820;12.808;2023-10-31T01:38:40;20.10;99.90
32839;DHT22;19182;41.820;12.808;2023-10-31T01:41:06;20.20;99.90
32839;DHT22;19182;41.820;12.808;2023-10-31T01:43:45;20.10;99.90
32839;DHT22;19182;41.820;12.808;2023-10-31T01:46:13;20.10;99.90
32839;DHT22;19182;41.820;12.808;2023-10-31T01:48:39;20.00;99.90
32839;DHT22;19182;41.820;12.808;2023-10-31T01:51:05;19.90;99.90
32839;DHT22;19182;41.820;12.808;2023-10-31T01:53:35;20.40;99.90
32839;DHT22;19182;41.820;12.808;2023-10-31T01:56:02;19.70;99.90
32839;DHT22;19182;41.820;12.808;2023-10-31T01:58:34;19.60;99.90
32839;DHT22;19182;41.820;12.808;2023-10-31T02:01:00;19.50;99.90
32839;DHT22;19182;41.820;12.808;2023-10-31T02:03:30;19.40;99.90
32839;DHT22;19182;41.820;12.808;2023-10-31T02:05:56;19.30;99.90
32839;DHT22;19182;41.820;12.808;2023-10-31T02:08:23;19.20;99.90
32839;DHT22;19182;41.820;12.808;2023-10-31T02:10:50;19.10;99.90
32839;DHT22;19182;41.820;12.808;2023-10-31T02:13:17;19.00;99.90
32839;DHT22;19182;41.820;12.808;2023-10-31T02:15:44;18.90;99.90
32839;DHT22;19182;41.820;12.808;2023-10-31T02:18:10;18.80;99.90
32839;DHT22;19182;41.820;12.808;2023-10-31T02:20:37;18.70;99.90
32839;DHT22;19182;41.820;12.808;2023-10-31T02:23:04;18.60;99.90
32839;DHT22;19182;41.820;12.808;2023-10-31T02:25:30;18.50;99.90
32839;DHT22;19182;41.820;12.808;2023-10-31T02:27:57;18.40;99.90
32839;DHT22;19182;41.820;12.808;2023-10-31T02:30:24;18.40;99.90
32839;DHT22;19182;41.820;12.808;2023-10-31T02:32:50;18.40;99.90
32839;DHT22;19182;41.820;12.808;2023-10-31T02:35:17;18.30;99.90
32839;DHT22;19182;41.820;12.808;2023-10-31T02:37:44;18.20;99.90
32839;DHT22;19182;41.820;12.808;2023-10-31T02:40:10;18.20;99.90
32839;DHT22;19182;41.820;12.808;2023-10-31T02:42:37;18.20;99.90
32839;DHT22;19182;41.820;12.808;2023-10-31T02:45:04;18.20;99.90
32839;DHT22;19182;41.820;12.808;2023-10-31T02:47:30;18.10;99.90
32839;DHT22;19182;41.820;12.808;2023-10-31T02:49:56;18.00;99.90
32839;DHT22;19182;41.820;12.808;2023-10-31T02:52:22;18.00;99.90
32839;DHT22;19182;41.820;12.808;2023-10-31T02:54:48;17.90;99.90
32839;DHT22;19182;41.820;12.808;2023-10-31T02:57:16;17.90;99.90
32839;DHT22;19182;41.820;12.808;2023-10-31T02:59:42;17.70;99.90
32839;DHT22;19182;41.820;12.808;2023-10-31T03:02:08;17.80;99.90
32839;DHT22;19182;41.820;12.808;2023-10-31T03:04:35;17.60;99.90
32839;DHT22;19182;41.820;12.808;2023-10-31T03:07:03;17.50;99.90
32839;DHT22;19182;41.820;12.808;2023-10-31T03:09:29;17.50;99.90
32839;DHT22;19182;41.820;12.808;2023-10-31T03:11:55;17.30;99.90
32839;DHT22;19182;41.820;12.808;2023-10-31T03:14:21;17.40;99.90
32839;DHT22;19182;41.820;12.808;2023-10-31T03:16:50;17.30;99.90
32839;DHT22;19182;41.820;12.808;2023-10-31T03:19:17;17.30;99.90
32839;DHT22;19182;41.820;12.808;2023-10-31T03:21:43;17.20;99.90
32839;DHT22;19182;41.820;12.808;2023-10-31T03:24:12;17.20;99.90
32839;DHT22;19182;41.820;12.808;2023-10-31T03:26:38;17.20;99.90
32839;DHT22;19182;41.820;12.808;2023-10-31T03:29:04;17.10;99.90
32839;DHT22;19182;41.820;12.808;2023-10-31T03:31:30;17.10;99.90
32839;DHT22;19182;41.820;12.808;2023-10-31T03:33:56;17.10;99.90
32839;DHT22;19182;41.820;12.808;2023-10-31T03:36:22;17.00;99.90
32839;DHT22;19182;41.820;12.808;2023-10-31T03:38:48;16.90;99.90
32839;DHT22;19182;41.820;12.808;2023-10-31T03:41:17;17.00;99.90
32839;DHT22;19182;41.820;12.808;2023-10-31T03:43:43;16.80;99.90
32839;DHT22;19182;41.820;12.808;2023-10-31T03:46:10;16.80;99.90
32839;DHT22;19182;41.820;12.808;2023-10-31T03:48:39;16.70;99.90
32839;DHT22;19182;41.820;12.808;2023-10-31T03:51:05;16.70;99.90
32839;DHT22;19182;41.820;12.808;2023-10-31T03:53:31;16.70;99.90
32839;DHT22;19182;41.820;12.808;2023-10-31T03:55:59;16.70;99.90
32839;DHT22;19182;41.820;12.808;2023-10-31T03:58:26;16.60;99.90
32839;DHT22;19182;41.820;12.808;2023-10-31T04:00:54;16.50;99.90
32839;DHT22;19182;41.820;12.808;2023-10-31T04:03:20;16.40;99.90
32839;DHT22;19182;41.820;12.808;2023-10-31T04:05:48;16.20;99.90
32839;DHT22;19182;41.820;12.808;2023-10-31T04:08:15;16.20;99.90
32839;DHT22;19182;41.820;12.808;2023-10-31T04:10:41;16.30;99.90
32839;DHT22;19182;41.820;12.808;2023-10-31T04:13:07;16.30;99.90
32839;DHT22;19182;41.820;12.808;2023-10-31T04:15:34;16.30;99.90
32839;DHT22;19182;41.820;12.808;2023-10-31T04:18:01;16.30;99.90
32839;DHT22;19182;41.820;12.808;2023-10-31T04:20:27;16.20;99.90
32839;DHT22;19182;41.820;12.808;2023-10-31T04:22:53;16.30;99.90
32839;DHT22;19182;41.820;12.808;2023-10-31T04:25:19;16.30;99.90
32839;DHT22;19182;41.820;12.808;2023-10-31T04:27:46;16.30;99.90
32839;DHT22;19182;41.820;12.808;2023-10-31T04:30:12;16.20;99.90
32839;DHT22;19182;41.820;12.808;2023-10-31T04:32:39;16.20;99.90
32839;DHT22;19182;41.820;12.808;2023-10-31T04:35:08;16.20;99.90
32839;DHT22;19182;41.820;12.808;2023-10-31T04:37:35;16.20;99.90
32839;DHT22;19182;41.820;12.808;2023-10-31T04:40:01;16.20;99.90
32839;DHT22;19182;41.820;12.808;2023-10-31T04:42:28;16.10;99.90
32839;DHT22;19182;41.820;12.808;2023-10-31T04:44:54;16.10;99.90
32839;DHT22;19182;41.820;12.808;2023-10-31T04:47:20;16.10;99.90
32839;DHT22;19182;41.820;12.808;2023-10-31T04:49:46;15.90;99.90
32839;DHT22;19182;41.820;12.808;2023-10-31T04:52:17;16.10;99.90
32839;DHT22;19182;41.820;12.808;2023-10-31T04:54:43;16.00;99.90
32839;DHT22;19182;41.820;12.808;2023-10-31T04:57:11;15.90;99.90
32839;DHT22;19182;41.820;12.808;2023-10-31T04:59:37;15.90;99.90
32839;DHT22;19182;41.820;12.808;2023-10-31T05:02:04;15.80;99.90
32839;DHT22;19182;41.820;12.808;2023-10-31T05:04:30;15.90;99.90
32839;DHT22;19182;41.820;12.808;2023-10-31T05:06:56;15.90;99.90
32839;DHT22;19182;41.820;12.808;2023-10-31T05:09:23;15.90;99.90
32839;DHT22;19182;41.820;12.808;2023-10-31T05:11:50;15.80;99.90
32839;DHT22;19182;41.820;12.808;2023-10-31T05:14:16;15.80;99.90
32839;DHT22;19182;41.820;12.808;2023-10-31T05:16:43;15.80;99.90
32839;DHT22;19182;41.820;12.808;2023-10-31T05:19:09;15.80;99.90
32839;DHT22;19182;41.820;12.808;2023-10-31T05:21:36;15.70;99.90
32839;DHT22;19182;41.820;12.808;2023-10-31T05:24:02;15.80;99.90
32839;DHT22;19182;41.820;12.808;2023-10-31T05:26:28;15.70;99.90
32839;DHT22;19182;41.820;12.808;2023-10-31T05:28:56;15.70;99.90
32839;DHT22;19182;41.820;12.808;2023-10-31T05:31:23;15.70;99.90
32839;DHT22;19182;41.820;12.808;2023-10-31T05:33:50;15.60;99.90
32839;DHT22;19182;41.820;12.808;2023-10-31T05:36:31;15.70;99.90
32839;DHT22;19182;41.820;12.808;2023-10-31T05:38:57;15.80;99.90
32839;DHT22;19182;41.820;12.808;2023-10-31T05:41:26;15.70;99.90
32839;DHT22;19182;41.820;12.808;2023-10-31T05:43:52;15.70;99.90
32839;DHT22;19182;41.820;12.808;2023-10-31T05:46:18;15.60;99.90
32839;DHT22;19182;41.820;12.808;2023-10-31T05:48:45;15.60;99.90
32839;DHT22;19182;41.820;12.808;2023-10-31T05:51:15;15.70;99.90
32839;DHT22;19182;41.820;12.808;2023-10-31T05:53:48;15.60;99.90
32839;DHT22;19182;41.820;12.808;2023-10-31T05:56:15;15.60;99.90
32839;DHT22;19182;41.820;12.808;2023-10-31T05:58:42;15.30;99.90
32839;DHT22;19182;41.820;12.808;2023-10-31T06:01:08;15.60;99.90
32839;DHT22;19182;41.820;12.808;2023-10-31T06:03:34;16.60;99.90
32839;DHT22;19182;41.820;12.808;2023-10-31T06:06:01;15.80;99.90
32839;DHT22;19182;41.820;12.808;2023-10-31T06:08:28;15.90;99.90
32839;DHT22;19182;41.820;12.808;2023-10-31T06:10:55;15.90;99.90
32839;DHT22;19182;41.820;12.808;2023-10-31T06:13:23;16.00;99.90
32839;DHT22;19182;41.820;12.808;2023-10-31T06:15:51;16.10;99.90
32839;DHT22;19182;41.820;12.808;2023-10-31T06:18:17;16.20;99.90
32839;DHT22;19182;41.820;12.808;2023-10-31T06:20:43;16.30;99.90
32839;DHT22;19182;41.820;12.808;2023-10-31T06:23:12;16.40;99.90
32839;DHT22;19182;41.820;12.808;2023-10-31T06:25:38;16.40;99.90
32839;DHT22;19182;41.820;12.808;2023-10-31T06:28:04;16.50;99.90
32839;DHT22;19182;41.820;12.808;2023-10-31T06:30:30;16.60;99.90
32839;DHT22;19182;41.820;12.808;2023-10-31T06:32:56;16.70;99.90
32839;DHT22;19182;41.820;12.808;2023-10-31T06:35:23;16.90;99.90
32839;DHT22;19182;41.820;12.808;2023-10-31T06:37:55;17.00;99.90
32839;DHT22;19182;41.820;12.808;2023-10-31T06:40:23;17.10;99.90
32839;DHT22;19182;41.820;12.808;2023-10-31T06:42:49;17.30;99.90
32839;DHT22;19182;41.820;12.808;2023-10-31T06:45:14;17.40;99.90
32839;DHT22;19182;41.820;12.808;2023-10-31T06:47:40;17.50;99.90
32839;DHT22;19182;41.820;12.808;2023-10-31T06:50:07;17.60;99.90
32839;DHT22;19182;41.820;12.808;2023-10-31T06:52:35;17.80;99.90
32839;DHT22;19182;41.820;12.808;2023-10-31T06:55:00;17.90;99.90
32839;DHT22;19182;41.820;12.808;2023-10-31T06:57:26;18.10;99.90
32839;DHT22;19182;41.820;12.808;2023-10-31T06:59:52;18.20;99.90
32839;DHT22;19182;41.820;12.808;2023-10-31T07:02:18;18.30;99.90
32839;DHT22;19182;41.820;12.808;2023-10-31T07:04:44;18.50;99.90
32839;DHT22;19182;41.820;12.808;2023-10-31T07:07:10;18.60;99.90
32839;DHT22;19182;41.820;12.808;2023-10-31T07:09:36;18.70;99.90
32839;DHT22;19182;41.820;12.808;2023-10-31T07:12:03;18.70;99.90
32839;DHT22;19182;41.820;12.808;2023-10-31T07:14:29;18.80;99.90
32839;DHT22;19182;41.820;12.808;2023-10-31T07:16:56;18.90;99.90
32839;DHT22;19182;41.820;12.808;2023-10-31T07:19:22;19.00;99.90
32839;DHT22;19182;41.820;12.808;2023-10-31T07:21:50;19.00;99.90
32839;DHT22;19182;41.820;12.808;2023-10-31T07:24:16;19.20;99.90
32839;DHT22;19182;41.820;12.808;2023-10-31T07:26:43;19.20;99.90
32839;DHT22;19182;41.820;12.808;2023-10-31T07:29:10;19.20;99.90
32839;DHT22;19182;41.820;12.808;2023-10-31T07:31:36;19.30;99.90
32839;DHT22;19182;41.820;12.808;2023-10-31T07:34:07;19.30;99.90
32839;DHT22;19182;41.820;12.808;2023-10-31T07:36:34;19.30;99.90
32839;DHT22;19182;41.820;12.808;2023-10-31T07:39:00;19.40;99.90
32839;DHT22;19182;41.820;12.808;2023-10-31T07:41:26;19.40;99.90
32839;DHT22;19182;41.820;12.808;2023-10-31T07:43:52;19.50;99.90
32839;DHT22;19182;41.820;12.808;2023-10-31T07:46:18;19.60;99.90
32839;DHT22;19182;41.820;12.808;2023-10-31T07:48:44;19.70;99.90
32839;DHT22;19182;41.820;12.808;2023-10-31T07:51:10;19.80;99.90
32839;DHT22;19182;41.820;12.808;2023-10-31T07:53:35;20.00;99.90
32839;DHT22;19182;41.820;12.808;2023-10-31T07:56:01;20.10;99.90
32839;DHT22;19182;41.820;12.808;2023-10-31T07:58:27;20.20;99.90
32839;DHT22;19182;41.820;12.808;2023-10-31T08:00:52;20.30;99.90
32839;DHT22;19182;41.820;12.808;2023-10-31T08:03:18;20.30;99.90
32839;DHT22;19182;41.820;12.808;2023-10-31T08:05:44;20.20;99.90
32839;DHT22;19182;41.820;12.808;2023-10-31T08:08:10;20.20;99.90
32839;DHT22;19182;41.820;12.808;2023-10-31T08:10:38;20.30;99.90
32839;DHT22;19182;41.820;12.808;2023-10-31T08:13:03;20.20;99.90
32839;DHT22;19182;41.820;12.808;2023-10-31T08:15:29;19.20;99.90
32839;DHT22;19182;41.820;12.808;2023-10-31T08:17:55;20.20;99.90
32839;DHT22;19182;41.820;12.808;2023-10-31T08:20:22;20.20;99.90
32839;DHT22;19182;41.820;12.808;2023-10-31T08:22:48;20.10;99.90
32839;DHT22;19182;41.820;12.808;2023-10-31T08:25:17;20.00;99.90
32839;DHT22;19182;41.820;12.808;2023-10-31T08:27:44;20.00;99.90
32839;DHT22;19182;41.820;12.808;2023-10-31T08:30:10;20.00;99.90
32839;DHT22;19182;41.820;12.808;2023-10-31T08:32:36;20.10;99.90
32839;DHT22;19182;41.820;12.808;2023-10-31T08:35:02;20.00;99.90
32839;DHT22;19182;41.820;12.808;2023-10-31T08:37:29;20.00;99.90
32839;DHT22;19182;41.820;12.808;2023-10-31T08:39:57;20.10;99.90
32839;DHT22;19182;41.820;12.808;2023-10-31T08:42:23;20.10;99.90
32839;DHT22;19182;41.820;12.808;2023-10-31T08:44:49;20.20;99.90
32839;DHT22;19182;41.820;12.808;2023-10-31T08:47:15;20.20;99.90
32839;DHT22;19182;41.820;12.808;2023-10-31T08:49:41;20.30;99.90
32839;DHT22;19182;41.820;12.808;2023-10-31T08:52:08;20.10;99.90
32839;DHT22;19182;41.820;12.808;2023-10-31T08:54:34;20.10;99.90
32839;DHT22;19182;41.820;12.808;2023-10-31T08:56:59;20.20;99.90
32839;DHT22;19182;41.820;12.808;2023-10-31T08:59:25;20.30;99.90
32839;DHT22;19182;41.820;12.808;2023-10-31T09:01:52;20.40;99.90
32839;DHT22;19182;41.820;12.808;2023-10-31T09:04:21;20.50;99.90
32839;DHT22;19182;41.820;12.808;2023-10-31T09:06:47;20.60;99.90
32839;DHT22;19182;41.820;12.808;2023-10-31T09:09:13;20.90;99.90
32839;DHT22;19182;41.820;12.808;2023-10-31T09:11:40;21.20;99.90
32839;DHT22;19182;41.820;12.808;2023-10-31T09:14:07;21.30;99.90
32839;DHT22;19182;41.820;12.808;2023-10-31T09:16:33;21.30;99.90
32839;DHT22;19182;41.820;12.808;2023-10-31T09:18:58;21.50;99.90
32839;DHT22;19182;41.820;12.808;2023-10-31T09:21:24;21.40;99.90
32839;DHT22;19182;41.820;12.808;2023-10-31T09:23:50;21.50;99.90
32839;DHT22;19182;41.820;12.808;2023-10-31T09:26:20;21.70;99.90
32839;DHT22;19182;41.820;12.808;2023-10-31T09:28:45;22.00;99.90
32839;DHT22;19182;41.820;12.808;2023-10-31T09:31:18;22.10;99.90
32839;DHT22;19182;41.820;12.808;2023-10-31T09:33:47;22.10;99.90
32839;DHT22;19182;41.820;12.808;2023-10-31T09:36:13;22.20;99.90
32839;DHT22;19182;41.820;12.808;2023-10-31T09:38:40;21.90;99.90
32839;DHT22;19182;41.820;12.808;2023-10-31T09:41:06;21.80;99.90
32839;DHT22;19182;41.820;12.808;2023-10-31T09:43:32;22.00;99.90
32839;DHT22;19182;41.820;12.808;2023-10-31T09:45:58;22.00;99.90
32839;DHT22;19182;41.820;12.808;2023-10-31T09:48:27;22.20;99.90
32839;DHT22;19182;41.820;12.808;2023-10-31T09:50:55;22.50;99.90
32839;DHT22;19182;41.820;12.808;2023-10-31T09:53:23;22.80;99.90
32839;DHT22;19182;41.820;12.808;2023-10-31T09:55:50;23.10;99.90
32839;DHT22;19182;41.820;12.808;2023-10-31T09:58:17;23.40;99.90
32839;DHT22;19182;41.820;12.808;2023-10-31T10:00:45;23.60;99.90
32839;DHT22;19182;41.820;12.808;2023-10-31T10:03:11;23.50;99.90
32839;DHT22;19182;41.820;12.808;2023-10-31T10:05:39;23.30;99.90
32839;DHT22;19182;41.820;12.808;2023-10-31T10:08:07;23.00;99.90
32839;DHT22;19182;41.820;12.808;2023-10-31T10:10:35;22.80;99.90
32839;DHT22;19182;41.820;12.808;2023-10-31T10:13:03;22.80;99.90
32839;DHT22;19182;41.820;12.808;2023-10-31T10:15:30;22.90;99.90
32839;DHT22;19182;41.820;12.808;2023-10-31T10:17:55;23.20;99.90
32839;DHT22;19182;41.820;12.808;2023-10-31T10:20:24;23.80;99.90
32839;DHT22;19182;41.820;12.808;2023-10-31T10:22:50;24.50;99.90
32839;DHT22;19182;41.820;12.808;2023-10-31T10:25:17;24.40;99.90
32839;DHT22;19182;41.820;12.808;2023-10-31T10:27:48;23.90;99.90
32839;DHT22;19182;41.820;12.808;2023-10-31T10:30:17;23.60;99.90
32839;DHT22;19182;41.820;12.808;2023-10-31T10:32:42;23.60;99.90
32839;DHT22;19182;41.820;12.808;2023-10-31T10:35:11;23.90;99.90
32839;DHT22;19182;41.820;12.808;2023-10-31T10:37:37;24.50;99.90
32839;DHT22;19182;41.820;12.808;2023-10-31T10:40:10;24.90;99.90
32839;DHT22;19182;41.820;12.808;2023-10-31T10:42:45;24.90;99.90
32839;DHT22;19182;41.820;12.808;2023-10-31T10:45:15;24.70;99.90
32839;DHT22;19182;41.820;12.808;2023-10-31T10:47:58;24.20;99.90
32839;DHT22;19182;41.820;12.808;2023-10-31T10:50:26;23.80;99.90
32839;DHT22;19182;41.820;12.808;2023-10-31T10:53:10;23.30;99.90
32839;DHT22;19182;41.820;12.808;2023-10-31T10:55:45;22.70;99.90
32839;DHT22;19182;41.820;12.808;2023-10-31T10:58:21;23.30;99.90
32839;DHT22;19182;41.820;12.808;2023-10-31T11:00:48;25.20;99.90
32839;DHT22;19182;41.820;12.808;2023-10-31T11:03:17;27.80;99.90
32839;DHT22;19182;41.820;12.808;2023-10-31T11:05:46;30.00;99.90
32839;DHT22;19182;41.820;12.808;2023-10-31T11:08:15;33.10;99.90
32839;DHT22;19182;41.820;12.808;2023-10-31T11:10:46;35.30;96.30
32839;DHT22;19182;41.820;12.808;2023-10-31T11:13:12;35.50;89.70
32839;DHT22;19182;41.820;12.808;2023-10-31T11:15:38;35.20;84.40
32839;DHT22;19182;41.820;12.808;2023-10-31T11:18:05;33.90;87.90
32839;DHT22;19182;41.820;12.808;2023-10-31T11:20:31;32.40;90.80
32839;DHT22;19182;41.820;12.808;2023-10-31T11:22:57;31.00;91.10
32839;DHT22;19182;41.820;12.808;2023-10-31T11:25:26;29.10;93.80
32839;DHT22;19182;41.820;12.808;2023-10-31T11:27:53;28.00;96.20
32839;DHT22;19182;41.820;12.808;2023-10-31T11:32:54;27.30;99.90
32839;DHT22;19182;41.820;12.808;2023-10-31T11:35:22;29.80;99.90
32839;DHT22;19182;41.820;12.808;2023-10-31T11:38:03;32.40;93.10
32839;DHT22;19182;41.820;12.808;2023-10-31T11:40:31;33.20;91.70
32839;DHT22;19182;41.820;12.808;2023-10-31T11:42:58;33.80;91.40
32839;DHT22;19182;41.820;12.808;2023-10-31T11:45:34;34.90;86.80
32839;DHT22;19182;41.820;12.808;2023-10-31T11:48:04;35.80;82.20
32839;DHT22;19182;41.820;12.808;2023-10-31T11:50:31;35.40;79.20
32839;DHT22;19182;41.820;12.808;2023-10-31T11:55:29;32.40;84.80
32839;DHT22;19182;41.820;12.808;2023-10-31T11:57:55;30.90;86.50
32839;DHT22;19182;41.820;12.808;2023-10-31T12:00:23;29.50;90.80
32839;DHT22;19182;41.820;12.808;2023-10-31T12:03:01;30.50;90.70
32839;DHT22;19182;41.820;12.808;2023-10-31T12:05:29;31.30;85.90
32839;DHT22;19182;41.820;12.808;2023-10-31T12:07:56;30.40;90.20
32839;DHT22;19182;41.820;12.808;2023-10-31T12:10:27;29.70;86.20
32839;DHT22;19182;41.820;12.808;2023-10-31T12:12:55;30.30;83.00
32839;DHT22;19182;41.820;12.808;2023-10-31T12:15:22;32.50;78.10
32839;DHT22;19182;41.820;12.808;2023-10-31T12:17:57;33.60;76.00
32839;DHT22;19182;41.820;12.808;2023-10-31T12:20:23;35.20;73.40
32839;DHT22;19182;41.820;12.808;2023-10-31T12:23:01;36.80;66.90
32839;DHT22;19182;41.820;12.808;2023-10-31T12:25:28;36.20;64.90
32839;DHT22;19182;41.820;12.808;2023-10-31T12:27:54;34.30;66.40
32839;DHT22;19182;41.820;12.808;2023-10-31T12:33:36;32.80;70.70
32839;DHT22;19182;41.820;12.808;2023-10-31T12:36:04;30.40;75.30
32839;DHT22;19182;41.820;12.808;2023-10-31T12:38:33;28.20;81.70
32839;DHT22;19182;41.820;12.808;2023-10-31T12:41:00;26.50;88.50
32839;DHT22;19182;41.820;12.808;2023-10-31T12:43:27;25.40;92.60
32839;DHT22;19182;41.820;12.808;2023-10-31T12:45:55;24.50;95.40
32839;DHT22;19182;41.820;12.808;2023-10-31T12:48:24;24.60;97.40
32839;DHT22;19182;41.820;12.808;2023-10-31T12:51:06;26.80;94.80
32839;DHT22;19182;41.820;12.808;2023-10-31T12:53:35;28.30;90.90
32839;DHT22;19182;41.820;12.808;2023-10-31T12:56:00;28.80;91.40
32839;DHT22;19182;41.820;12.808;2023-10-31T12:58:27;30.70;85.60
32839;DHT22;19182;41.820;12.808;2023-10-31T13:00:54;32.90;80.30
32839;DHT22;19182;41.820;12.808;2023-10-31T13:03:21;34.10;75.70
32839;DHT22;19182;41.820;12.808;2023-10-31T13:05:48;33.70;74.50
32839;DHT22;19182;41.820;12.808;2023-10-31T13:08:14;32.60;76.00
32839;DHT22;19182;41.820;12.808;2023-10-31T13:10:41;30.80;80.20
32839;DHT22;19182;41.820;12.808;2023-10-31T13:13:08;29.00;84.50
32839;DHT22;19182;41.820;12.808;2023-10-31T13:15:34;29.10;86.20
32839;DHT22;19182;41.820;12.808;2023-10-31T13:18:05;30.70;83.20
32839;DHT22;19182;41.820;12.808;2023-10-31T13:20:37;31.60;78.00
32839;DHT22;19182;41.820;12.808;2023-10-31T13:23:02;30.80;78.60
32839;DHT22;19182;41.820;12.808;2023-10-31T13:25:29;31.10;76.90
32839;DHT22;19182;41.820;12.808;2023-10-31T13:27:57;30.20;78.30
32839;DHT22;19182;41.820;12.808;2023-10-31T13:30:22;29.50;81.30
32839;DHT22;19182;41.820;12.808;2023-10-31T13:32:50;27.60;86.40
32839;DHT22;19182;41.820;12.808;2023-10-31T13:35:16;26.00;90.70
32839;DHT22;19182;41.820;12.808;2023-10-31T13:37:42;24.60;93.50
32839;DHT22;19182;41.820;12.808;2023-10-31T13:40:09;24.20;96.10
32839;DHT22;19182;41.820;12.808;2023-10-31T13:42:35;24.10;97.60
32839;DHT22;19182;41.820;12.808;2023-10-31T13:45:01;24.10;98.50
32839;DHT22;19182;41.820;12.808;2023-10-31T13:47:27;24.00;98.70
32839;DHT22;19182;41.820;12.808;2023-10-31T13:49:55;23.60;99.50
32839;DHT22;19182;41.820;12.808;2023-10-31T13:52:21;23.30;99.90
32839;DHT22;19182;41.820;12.808;2023-10-31T13:54:48;23.00;99.90
32839;DHT22;19182;41.820;12.808;2023-10-31T13:57:17;22.70;99.90
32839;DHT22;19182;41.820;12.808;2023-10-31T13:59:45;22.40;99.90
32839;DHT22;19182;41.820;12.808;2023-10-31T14:02:14;21.90;99.90
32839;DHT22;19182;41.820;12.808;2023-10-31T14:04:39;21.60;99.90
32839;DHT22;19182;41.820;12.808;2023-10-31T14:07:05;21.20;99.90
32839;DHT22;19182;41.820;12.808;2023-10-31T14:09:31;20.70;99.90
32839;DHT22;19182;41.820;12.808;2023-10-31T14:11:59;20.50;99.90
32839;DHT22;19182;41.820;12.808;2023-10-31T14:14:24;20.40;99.90
32839;DHT22;19182;41.820;12.808;2023-10-31T14:16:51;20.40;99.90
32839;DHT22;19182;41.820;12.808;2023-10-31T14:19:17;20.60;99.90
32839;DHT22;19182;41.820;12.808;2023-10-31T14:21:43;20.60;99.90
32839;DHT22;19182;41.820;12.808;2023-10-31T14:24:09;20.60;99.90
32839;DHT22;19182;41.820;12.808;2023-10-31T14:26:35;20.80;99.90
32839;DHT22;19182;41.820;12.808;2023-10-31T14:29:02;20.90;99.90
32839;DHT22;19182;41.820;12.808;2023-10-31T14:31:28;20.80;99.90
32839;DHT22;19182;41.820;12.808;2023-10-31T14:33:54;20.80;99.90
32839;DHT22;19182;41.820;12.808;2023-10-31T14:36:20;20.70;99.90
32839;DHT22;19182;41.820;12.808;2023-10-31T14:38:47;20.60;99.90
32839;DHT22;19182;41.820;12.808;2023-10-31T14:41:13;20.50;99.90
32839;DHT22;19182;41.820;12.808;2023-10-31T14:43:39;20.30;99.90
32839;DHT22;19182;41.820;12.808;2023-10-31T14:46:06;20.20;99.90
32839;DHT22;19182;41.820;12.808;2023-10-31T14:48:33;20.20;99.90
32839;DHT22;19182;41.820;12.808;2023-10-31T14:51:01;20.10;99.90
32839;DHT22;19182;41.820;12.808;2023-10-31T14:53:28;20.10;99.90
32839;DHT22;19182;41.820;12.808;2023-10-31T14:55:54;20.00;99.90
32839;DHT22;19182;41.820;12.808;2023-10-31T14:58:21;19.90;99.90
32839;DHT22;19182;41.820;12.808;2023-10-31T15:00:46;19.80;99.90
32839;DHT22;19182;41.820;12.808;2023-10-31T15:03:12;19.70;99.90
32839;DHT22;19182;41.820;12.808;2023-10-31T15:05:37;19.70;99.90
32839;DHT22;19182;41.820;12.808;2023-10-31T15:08:04;19.60;99.90
32839;DHT22;19182;41.820;12.808;2023-10-31T15:10:29;19.50;99.90
32839;DHT22;19182;41.820;12.808;2023-10-31T15:12:55;19.60;99.90
32839;DHT22;19182;41.820;12.808;2023-10-31T15:15:21;19.60;99.90
32839;DHT22;19182;41.820;12.808;2023-10-31T15:17:47;19.50;99.90
32839;DHT22;19182;41.820;12.808;2023-10-31T15:20:13;19.40;99.90
32839;DHT22;19182;41.820;12.808;2023-10-31T15:22:40;19.20;99.90